Time;durP1;ratioP1;P1;durP2;ratioP2;P2;SDS_P1;SDS_P2;PMS_P1;PMS_P2;Temp;Humidity;BMP_temperature;BMP_pressure;BME280_temperature;BME280_humidity;BME280_pressure;Samples;Min_cycle;Max_cycle;Signal;HPM_P1;HPM_P2
2022/12/20 09:55:46;;;;;;;4.50;3.70;;;5.10;99.90;;;;;;5135400;27;20284;-80
2022/12/20 09:58:41;;;;;;;5.03;3.77;;;5.20;99.90;;;;;;5134224;28;20204;-80
2022/12/20 10:01:21;;;;;;;6.17;3.80;;;5.20;99.90;;;;;;5134388;27;20182;-79
2022/12/20 10:03:46;;;;;;;4.30;3.47;;;5.30;99.90;;;;;;5134295;27;20765;-79
2022/12/20 10:06:32;;;;;;;3.87;3.33;;;5.30;99.90;;;;;;5132547;28;20220;-79
2022/12/20 10:08:59;;;;;;;4.57;3.43;;;5.30;99.90;;;;;;5132455;28;20166;-79
2022/12/20 10:11:43;;;;;;;5.83;4.60;;;5.30;99.90;;;;;;5132467;28;20182;-79
2022/12/20 10:14:26;;;;;;;5.80;3.57;;;5.30;99.90;;;;;;5131976;28;20264;-79
2022/12/20 10:16:57;;;;;;;4.17;3.20;;;5.30;99.90;;;;;;5132287;28;20278;-79
2022/12/20 10:19:35;;;;;;;4.30;3.20;;;5.40;99.90;;;;;;5133645;27;20170;-79
2022/12/20 10:22:03;;;;;;;11.40;4.50;;;5.60;99.90;;;;;;5131631;28;20159;-79
2022/12/20 10:24:34;;;;;;;22.17;8.50;;;5.80;99.90;;;;;;5132002;28;20419;-79
2022/12/20 10:27:18;;;;;;;25.63;9.57;;;6.00;99.90;;;;;;5133242;27;20202;-79
2022/12/20 10:29:46;;;;;;;24.73;8.57;;;6.10;99.90;;;;;;5132982;27;20176;-79
2022/12/20 10:32:18;;;;;;;18.30;7.17;;;6.20;99.90;;;;;;5132569;27;20176;-79
2022/12/20 10:35:09;;;;;;;13.20;5.83;;;6.10;99.90;;;;;;5132258;27;20192;-79
2022/12/20 10:37:35;;;;;;;5.50;3.20;;;6.10;99.90;;;;;;5111878;28;20208;-79
2022/12/20 10:40:01;;;;;;;6.50;3.20;;;6.00;99.90;;;;;;5130150;28;20259;-79
2022/12/20 10:42:39;;;;;;;4.13;3.17;;;5.90;99.90;;;;;;5131147;27;20176;-79
2022/12/20 10:45:32;;;;;;;18.37;6.40;;;5.90;99.90;;;;;;5132989;28;20196;-79
2022/12/20 10:48:00;;;;;;;15.57;5.97;;;5.80;99.90;;;;;;5132921;28;20286;-79
2022/12/20 10:50:26;;;;;;;5.93;3.97;;;5.70;99.90;;;;;;5132891;28;20185;-79
2022/12/20 10:53:16;;;;;;;3.80;2.90;;;5.70;99.90;;;;;;5132714;28;20188;-79
2022/12/20 10:55:42;;;;;;;5.13;3.33;;;5.60;99.90;;;;;;5133826;27;20164;-79
2022/12/20 10:58:28;;;;;;;5.57;3.57;;;5.60;99.90;;;;;;5133794;27;20719;-79
2022/12/20 11:01:05;;;;;;;5.80;3.30;;;5.70;99.90;;;;;;5134108;27;20187;-79
2022/12/20 11:03:31;;;;;;;5.60;3.70;;;5.70;99.90;;;;;;5132174;28;20218;-79
2022/12/20 11:06:03;;;;;;;6.90;4.40;;;5.80;99.90;;;;;;5123060;28;20181;-79
2022/12/20 11:08:31;;;;;;;7.83;4.00;;;6.00;99.90;;;;;;5118814;28;20200;-79
2022/12/20 11:11:11;;;;;;;5.30;4.03;;;6.10;99.90;;;;;;5119499;28;20690;-79
2022/12/20 11:13:37;;;;;;;9.63;5.17;;;6.30;99.90;;;;;;5118057;28;20204;-79
2022/12/20 11:16:03;;;;;;;6.73;4.40;;;6.50;99.90;;;;;;5118572;28;20180;-79
2022/12/20 11:18:38;;;;;;;9.40;5.10;;;6.70;99.90;;;;;;5118191;28;20197;-79
2022/12/20 11:21:39;;;;;;;6.70;4.30;;;6.70;99.90;;;;;;5119149;28;20171;-80
2022/12/20 11:24:11;;;;;;;7.50;4.67;;;6.50;99.90;;;;;;5120180;28;20168;-80
2022/12/20 11:27:10;;;;;;;9.03;4.90;;;6.30;99.90;;;;;;5118896;28;20200;-79
2022/12/20 11:29:47;;;;;;;8.10;4.97;;;6.20;99.90;;;;;;5119771;28;20164;-79
2022/12/20 11:32:34;;;;;;;8.90;6.00;;;6.20;99.90;;;;;;5117846;28;20191;-80
2022/12/20 11:35:42;;;;;;;9.47;5.23;;;6.20;99.90;;;;;;5119429;28;20610;-80
2022/12/20 11:38:27;;;;;;;6.90;5.00;;;6.10;99.90;;;;;;5088918;28;20696;-79
2022/12/20 11:41:14;;;;;;;5.63;4.30;;;6.10;99.90;;;;;;5119369;28;20256;-80
2022/12/20 11:43:58;;;;;;;14.07;6.00;;;6.00;99.90;;;;;;5120586;28;20173;-82
2022/12/20 11:46:44;;;;;;;11.43;6.30;;;6.00;99.90;;;;;;5118729;28;20187;-80
2022/12/20 11:49:45;;;;;;;8.03;5.17;;;6.10;99.90;;;;;;5120580;28;20237;-81
2022/12/20 11:52:37;;;;;;;5.87;4.67;;;6.10;99.90;;;;;;5118489;28;20183;-81
2022/12/20 11:55:16;;;;;;;6.40;4.17;;;6.20;99.90;;;;;;5118368;28;20231;-80
2022/12/20 11:58:07;;;;;;;5.73;4.30;;;6.30;99.90;;;;;;5118336;28;20197;-81
2022/12/20 12:00:35;;;;;;;6.17;4.70;;;6.30;99.90;;;;;;5110811;28;20227;-81
2022/12/20 12:03:33;;;;;;;8.13;5.50;;;6.40;99.90;;;;;;5118538;28;20661;-80
2022/12/20 12:06:07;;;;;;;9.10;5.90;;;6.40;99.90;;;;;;5117901;28;20165;-80
2022/12/20 12:08:39;;;;;;;6.73;5.07;;;6.40;99.90;;;;;;5119763;28;20238;-80
2022/12/20 12:11:19;;;;;;;8.20;5.37;;;6.50;99.90;;;;;;5118601;28;20172;-81
2022/12/20 12:13:45;;;;;;;12.33;7.93;;;6.50;99.90;;;;;;5118399;28;20199;-80
2022/12/20 12:16:27;;;;;;;9.10;6.00;;;6.60;99.90;;;;;;5119876;28;20172;-81
2022/12/20 12:18:53;;;;;;;14.13;8.73;;;6.60;99.90;;;;;;5117524;28;20720;-81
2022/12/20 12:21:45;;;;;;;13.97;8.13;;;6.60;99.90;;;;;;5119126;28;20195;-81
2022/12/20 12:24:41;;;;;;;12.40;8.37;;;6.60;99.90;;;;;;5116528;28;20220;-80
2022/12/20 12:27:14;;;;;;;12.23;7.90;;;6.50;99.90;;;;;;5118412;28;20223;-80
2022/12/20 12:29:40;;;;;;;10.67;7.10;;;6.50;99.90;;;;;;5120456;28;20161;-80
2022/12/20 12:32:14;;;;;;;14.90;6.10;;;6.40;99.90;;;;;;5123097;28;20231;-81
2022/12/20 12:35:08;;;;;;;8.23;5.83;;;6.40;99.90;;;;;;5117084;28;20191;-81
2022/12/20 12:37:52;;;;;;;10.00;5.43;;;6.30;99.90;;;;;;5118559;28;20188;-80
2022/12/20 12:40:26;;;;;;;7.90;5.20;;;6.30;99.90;;;;;;5119053;28;20161;-80
2022/12/20 12:43:10;;;;;;;7.60;5.73;;;6.40;99.90;;;;;;5118281;28;20164;-80
2022/12/20 12:45:39;;;;;;;15.53;8.00;;;6.40;99.90;;;;;;5118663;28;20172;-81
2022/12/20 12:48:25;;;;;;;12.73;7.40;;;6.40;99.90;;;;;;5117172;28;20671;-81
2022/12/20 12:50:55;;;;;;;11.37;6.83;;;6.40;99.90;;;;;;5116903;28;20165;-81
2022/12/20 12:53:33;;;;;;;10.37;5.07;;;6.30;99.90;;;;;;5116622;28;20572;-81
2022/12/20 12:56:21;;;;;;;12.70;5.67;;;6.30;99.90;;;;;;5116761;28;20216;-80
2022/12/20 12:59:05;;;;;;;14.20;6.20;;;6.30;99.90;;;;;;5118058;28;20259;-80
2022/12/20 13:01:46;;;;;;;16.57;6.00;;;6.30;99.90;;;;;;5117940;28;20202;-81
2022/12/20 13:04:20;;;;;;;14.57;7.03;;;6.40;99.90;;;;;;5116402;28;20727;-80
2022/12/20 13:06:46;;;;;;;10.57;5.87;;;6.40;99.90;;;;;;5118283;28;20278;-81
2022/12/20 13:09:41;;;;;;;9.50;5.97;;;6.60;99.90;;;;;;5118066;28;20203;-81
2022/12/20 13:12:54;;;;;;;14.17;6.53;;;6.80;99.90;;;;;;5103970;28;20265;-81
2022/12/20 13:15:19;;;;;;;26.87;11.17;;;7.10;99.90;;;;;;5076168;28;20383;-81
2022/12/20 13:17:58;;;;;;;26.63;10.10;;;7.20;99.90;;;;;;5076803;28;20230;-81
2022/12/20 13:20:27;;;;;;;25.87;13.17;;;7.30;99.90;;;;;;5103605;28;20200;-80
2022/12/20 13:23:07;;;;;;;24.47;13.13;;;7.50;99.90;;;;;;5116442;28;20252;-81
2022/12/20 13:25:40;;;;;;;22.07;12.10;;;7.70;99.90;;;;;;5116393;28;20271;-81
2022/12/20 13:28:17;;;;;;;20.53;10.87;;;7.70;99.90;;;;;;5116925;28;20214;-82
2022/12/20 13:31:08;;;;;;;16.80;10.63;;;7.70;99.90;;;;;;5115258;28;20181;-81
2022/12/20 13:33:47;;;;;;;19.03;9.70;;;7.60;99.90;;;;;;5113943;28;20209;-81
2022/12/20 13:36:16;;;;;;;24.10;12.90;;;7.50;99.90;;;;;;5113753;28;20169;-81
2022/12/20 13:38:45;;;;;;;26.57;14.57;;;7.40;99.90;;;;;;5115869;28;20222;-81
2022/12/20 13:41:25;;;;;;;18.37;9.60;;;7.30;99.90;;;;;;5118088;28;20231;-81
2022/12/20 13:43:52;;;;;;;68.23;23.73;;;7.20;99.90;;;;;;5118271;28;20192;-81
2022/12/20 13:46:36;;;;;;;83.87;27.47;;;7.10;99.90;;;;;;5119061;28;20711;-81
2022/12/20 13:49:04;;;;;;;62.43;21.90;;;7.00;99.90;;;;;;5116501;28;20630;-81
2022/12/20 13:51:30;;;;;;;36.33;15.50;;;6.90;99.90;;;;;;5116980;28;20183;-82
2022/12/20 13:54:04;;;;;;;30.73;13.10;;;6.70;99.90;;;;;;5117817;28;20219;-81
2022/12/20 13:56:45;;;;;;;25.07;11.53;;;6.60;99.90;;;;;;5117438;28;20227;-82
2022/12/20 13:59:19;;;;;;;26.67;12.30;;;6.50;99.90;;;;;;5117157;28;20174;-82
2022/12/20 14:01:53;;;;;;;22.87;11.63;;;6.50;99.90;;;;;;5119578;28;20217;-82
2022/12/20 14:04:20;;;;;;;18.57;10.60;;;6.40;99.90;;;;;;5120025;28;20172;-82
2022/12/20 14:06:53;;;;;;;13.63;9.13;;;6.30;99.90;;;;;;5116096;28;20690;-81
2022/12/20 14:09:36;;;;;;;20.07;10.63;;;6.30;99.90;;;;;;5117679;28;20177;-82
2022/12/20 14:12:04;;;;;;;18.23;9.77;;;6.20;99.90;;;;;;5117388;28;20175;-82
2022/12/20 14:14:35;;;;;;;25.50;13.00;;;6.10;99.90;;;;;;5117343;28;20200;-81
2022/12/20 14:17:21;;;;;;;23.00;12.73;;;6.10;99.90;;;;;;5116127;28;20673;-82
2022/12/20 14:19:46;;;;;;;34.47;18.27;;;6.00;99.90;;;;;;5117994;28;20210;-82
2022/12/20 14:22:13;;;;;;;22.00;12.93;;;6.00;99.90;;;;;;5117335;28;20177;-81
